Time;durP1;ratioP1;P1;durP2;ratioP2;P2;SDS_P1;SDS_P2;PMS_P1;PMS_P2;Temp;Humidity;BMP_temperature;BMP_pressure;BME280_temperature;BME280_humidity;BME280_pressure;Samples;Min_cycle;Max_cycle;Signal;HPM_P1;HPM_P2
2022/05/17 00:01:48;;;;;;;9.73;7.20;;;25.00;99.90;;;;;;1894812;73;21160;-80
2022/05/17 00:04:20;;;;;;;9.48;7.87;;;24.80;99.90;;;;;;1848660;75;21155;-79
2022/05/17 00:06:52;;;;;;;9.78;7.60;;;24.70;99.90;;;;;;1816003;77;21207;-79
2022/05/17 00:09:23;;;;;;;10.93;7.45;;;25.10;99.90;;;;;;1832690;76;21235;-80
2022/05/17 00:11:56;;;;;;;10.63;7.50;;;25.00;99.90;;;;;;1856665;75;21144;-80
2022/05/17 00:14:27;;;;;;;10.32;7.83;;;;;;;;;;1831534;75;21620;-79
2022/05/17 00:16:58;;;;;;;8.55;7.65;;;24.70;99.90;;;;;;1831879;77;21178;-79
2022/05/17 00:19:30;;;;;;;9.95;7.92;;;;;;;;;;1804509;77;21171;-80
2022/05/17 00:22:04;;;;;;;12.50;8.15;;;24.70;99.90;;;;;;1823189;77;21609;-72
2022/05/17 00:24:35;;;;;;;9.70;7.53;;;;;;;;;;1830131;76;21189;-72
2022/05/17 00:27:07;;;;;;;11.83;8.05;;;24.60;99.90;;;;;;1857313;76;21225;-72
2022/05/17 00:29:38;;;;;;;12.70;8.03;;;25.00;99.90;;;;;;1817763;76;21106;-72
2022/05/17 00:32:11;;;;;;;10.58;7.60;;;;;;;;;;1821776;77;21110;-72
2022/05/17 00:34:44;;;;;;;9.68;8.35;;;24.70;99.90;;;;;;1841040;76;21201;-72
2022/05/17 00:37:15;;;;;;;9.60;8.38;;;25.10;99.90;;;;;;1846925;75;21104;-72
2022/05/17 00:39:49;;;;;;;10.80;8.13;;;24.90;99.90;;;;;;1831020;77;21659;-72
2022/05/17 00:42:21;;;;;;;14.53;8.35;;;24.80;99.90;;;;;;1834555;76;21632;-73
2022/05/17 00:44:54;;;;;;;11.12;7.87;;;;;;;;;;1884062;76;21534;-73
2022/05/17 00:47:29;;;;;;;11.10;7.62;;;;;;;;;;1867634;76;21142;-72
2022/05/17 00:50:03;;;;;;;9.33;7.58;;;;;;;;;;1895505;73;21643;-73
2022/05/17 00:52:41;;;;;;;10.35;7.90;;;;;;;;;;1896975;75;21725;-73
2022/05/17 00:55:17;;;;;;;9.58;7.70;;;;;;;;;;1904487;75;21599;-71
2022/05/17 00:57:52;;;;;;;11.85;8.03;;;;;;;;;;1900642;74;21648;-73
2022/05/17 01:00:25;;;;;;;10.38;7.65;;;24.90;99.90;;;;;;1886012;74;21163;-73
2022/05/17 01:03:01;;;;;;;10.85;8.25;;;25.20;99.90;;;;;;1906743;75;21621;-73
2022/05/17 01:05:34;;;;;;;9.70;7.60;;;25.20;99.90;;;;;;1844815;77;21100;-73
2022/05/17 01:08:07;;;;;;;12.35;8.15;;;25.10;99.90;;;;;;1806448;78;21158;-73
2022/05/17 01:10:38;;;;;;;8.95;8.00;;;24.80;99.90;;;;;;1816337;78;21617;-72
2022/05/17 01:15:42;;;;;;;9.20;7.97;;;25.20;99.90;;;;;;1820203;77;21119;-70
2022/05/17 01:18:13;;;;;;;11.22;7.90;;;25.00;99.90;;;;;;1835432;75;21765;-70
2022/05/17 01:20:45;;;;;;;13.35;8.73;;;25.30;99.90;;;;;;1855410;76;21170;-71
2022/05/17 01:23:16;;;;;;;9.48;8.18;;;24.80;99.90;;;;;;1817764;77;21163;-70
2022/05/17 01:25:47;;;;;;;11.22;7.65;;;25.00;99.90;;;;;;1814557;78;21809;-72
2022/05/17 01:28:20;;;;;;;10.60;8.13;;;25.00;99.90;;;;;;1879361;75;21689;-73
2022/05/17 01:30:51;;;;;;;9.95;7.30;;;25.10;99.90;;;;;;1906501;73;21628;-73
2022/05/17 01:33:24;;;;;;;9.60;8.08;;;25.30;99.90;;;;;;1893298;74;21168;-72
2022/05/17 01:35:55;;;;;;;9.43;7.47;;;25.10;99.90;;;;;;1878006;73;21216;-73
2022/05/17 01:38:27;;;;;;;8.90;7.30;;;25.20;99.90;;;;;;1896575;75;21606;-72
2022/05/17 01:40:58;;;;;;;11.53;8.28;;;25.30;99.90;;;;;;1879319;74;21183;-72
2022/05/17 01:43:29;;;;;;;9.45;7.62;;;24.90;99.90;;;;;;1888127;74;21139;-72
2022/05/17 01:46:02;;;;;;;11.43;7.60;;;25.00;99.90;;;;;;1901133;74;21168;-72
2022/05/17 01:48:34;;;;;;;10.08;7.70;;;25.20;99.90;;;;;;1901309;74;21643;-72
2022/05/17 01:51:06;;;;;;;8.68;7.33;;;25.30;99.90;;;;;;1888231;74;21157;-72
2022/05/17 01:53:37;;;;;;;11.43;7.65;;;25.10;99.90;;;;;;1891613;75;21093;-72
2022/05/17 01:56:11;;;;;;;9.18;7.55;;;25.30;99.90;;;;;;1900927;73;21093;-72
2022/05/17 01:58:42;;;;;;;10.48;7.28;;;25.30;99.90;;;;;;1882092;73;21152;-72
2022/05/17 02:01:14;;;;;;;12.10;7.80;;;25.20;99.90;;;;;;1848152;77;21604;-72
2022/05/17 02:03:45;;;;;;;9.30;7.97;;;25.40;99.90;;;;;;1835794;76;21297;-72
2022/05/17 02:06:16;;;;;;;11.18;7.50;;;25.60;99.90;;;;;;1905332;73;21175;-72
2022/05/17 02:08:47;;;;;;;10.60;7.87;;;25.30;99.90;;;;;;1843049;76;21122;-72
2022/05/17 02:11:17;;;;;;;12.47;9.18;;;25.50;99.90;;;;;;1840507;77;21221;-73
2022/05/17 02:13:48;;;;;;;9.93;8.30;;;25.30;99.90;;;;;;1907543;74;21133;-73
2022/05/17 02:16:19;;;;;;;10.63;7.47;;;25.40;99.90;;;;;;1906637;73;21608;-73
2022/05/17 02:18:50;;;;;;;8.83;7.35;;;;;;;;;;1887482;75;21284;-72
2022/05/17 02:21:24;;;;;;;10.03;6.90;;;;;;;;;;1900120;74;21684;-70
2022/05/17 02:23:55;;;;;;;11.63;7.83;;;;;;;;;;1894317;73;21538;-70
2022/05/17 02:26:25;;;;;;;10.32;7.20;;;25.50;99.90;;;;;;1893210;74;21176;-71
2022/05/17 02:28:56;;;;;;;11.80;7.70;;;26.00;99.90;;;;;;1857223;76;21145;-70
2022/05/17 02:31:27;;;;;;;8.98;6.95;;;25.90;99.90;;;;;;1815684;77;21261;-70
2022/05/17 02:33:59;;;;;;;8.70;7.37;;;26.10;99.90;;;;;;1831669;78;21154;-71
2022/05/17 02:36:30;;;;;;;9.90;6.60;;;;;;;;;;1885443;74;22312;-71
2022/05/17 02:39:01;;;;;;;9.73;6.75;;;26.20;99.90;;;;;;1895905;74;21192;-71
2022/05/17 02:41:32;;;;;;;8.68;6.90;;;;;;;;;;1855317;76;21181;-71
2022/05/17 02:44:03;;;;;;;12.05;6.85;;;;;;;;;;1850532;75;21684;-70
2022/05/17 02:46:34;;;;;;;7.42;6.67;;;;;;;;;;1850982;73;21709;-71
2022/05/17 02:49:09;;;;;;;7.55;6.30;;;26.50;99.90;;;;;;1790541;79;21192;-71
2022/05/17 02:51:39;;;;;;;10.70;6.80;;;26.50;99.90;;;;;;1752760;80;21190;-72
2022/05/17 02:54:10;;;;;;;11.15;6.62;;;;;;;;;;1754525;80;21234;-71
2022/05/17 02:56:41;;;;;;;6.85;6.00;;;26.50;99.90;;;;;;1754798;81;21256;-70
2022/05/17 02:59:17;;;;;;;8.30;6.17;;;26.80;99.90;;;;;;1749008;80;21721;-69
2022/05/17 03:01:45;;;;;;;9.05;6.42;;;26.50;99.90;;;;;;1756637;80;21242;-71
2022/05/17 03:04:17;;;;;;;7.03;5.90;;;26.60;99.90;;;;;;1752995;79;21694;-71
2022/05/17 03:06:48;;;;;;;7.25;6.03;;;26.50;99.90;;;;;;1729224;78;21200;-71
2022/05/17 03:09:19;;;;;;;7.35;6.08;;;26.70;99.90;;;;;;1725535;80;21313;-71
2022/05/17 03:11:50;;;;;;;9.53;6.60;;;26.60;99.90;;;;;;1755444;79;21243;-72
2022/05/17 03:14:22;;;;;;;10.05;6.72;;;26.70;99.90;;;;;;1727659;80;21207;-71
2022/05/17 03:16:53;;;;;;;8.23;6.00;;;26.80;99.90;;;;;;1757365;80;21121;-71
2022/05/17 03:19:24;;;;;;;14.73;6.83;;;26.80;99.90;;;;;;1754138;79;21244;-71
2022/05/17 03:21:55;;;;;;;9.33;6.90;;;26.50;99.90;;;;;;1797128;78;21168;-71
2022/05/17 03:24:26;;;;;;;10.32;7.37;;;26.80;99.90;;;;;;1748161;79;21224;-73
2022/05/17 03:26:58;;;;;;;7.53;6.25;;;26.60;99.90;;;;;;1739742;80;21145;-72
2022/05/17 03:29:29;;;;;;;7.85;6.45;;;26.60;99.90;;;;;;1746741;81;21200;-72
2022/05/17 03:32:01;;;;;;;8.98;6.55;;;26.70;99.90;;;;;;1765102;80;21101;-72
2022/05/17 03:34:33;;;;;;;7.70;6.03;;;26.70;99.90;;;;;;1778634;79;21188;-72
2022/05/17 03:37:06;;;;;;;8.40;6.55;;;26.80;99.90;;;;;;1759992;80;21219;-73
2022/05/17 03:39:36;;;;;;;11.43;6.35;;;26.90;99.90;;;;;;1774671;80;21126;-77
2022/05/17 03:42:09;;;;;;;10.55;7.53;;;26.70;99.90;;;;;;1768460;79;21687;-75
2022/05/17 03:44:40;;;;;;;11.28;7.78;;;27.00;99.90;;;;;;1749005;80;21153;-75
2022/05/17 03:47:11;;;;;;;9.65;6.85;;;27.00;99.90;;;;;;1751550;80;21675;-75
2022/05/17 03:49:42;;;;;;;9.15;6.87;;;;;;;;;;1746164;80;21295;-76
2022/05/17 03:52:14;;;;;;;7.50;6.72;;;;;;;;;;1728948;81;21253;-75
2022/05/17 03:54:45;;;;;;;9.58;7.55;;;;;;;;;;1735922;80;21169;-74
2022/05/17 03:57:16;;;;;;;8.83;6.83;;;;;;;;;;1737470;79;21156;-72
2022/05/17 03:59:48;;;;;;;8.65;7.25;;;;;;;;;;1818452;77;21206;-73
2022/05/17 04:02:19;;;;;;;9.83;6.85;;;;;;;;;;1835409;77;21163;-74
2022/05/17 04:04:51;;;;;;;8.73;6.42;;;;;;;;;;1826094;76;21176;-72
2022/05/17 04:07:23;;;;;;;7.92;6.60;;;;;;;;;;1817597;77;21390;-74
2022/05/17 04:09:54;;;;;;;8.33;7.15;;;;;;;;;;1794381;76;21206;-73
2022/05/17 04:12:26;;;;;;;9.95;6.62;;;;;;;;;;1813690;78;21204;-73
2022/05/17 04:14:57;;;;;;;8.55;6.85;;;;;;;;;;1800348;78;21122;-73
2022/05/17 04:17:28;;;;;;;11.00;7.45;;;;;;;;;;1791828;77;21226;-76
2022/05/17 04:20:00;;;;;;;11.12;7.03;;;;;;;;;;1780700;79;21274;-74
2022/05/17 04:22:31;;;;;;;8.58;6.95;;;;;;;;;;1788856;77;21782;-74
2022/05/17 04:25:03;;;;;;;8.43;6.72;;;;;;;;;;1797567;78;21242;-74
2022/05/17 04:27:35;;;;;;;10.43;6.47;;;26.60;99.90;;;;;;1795765;78;21273;-74
2022/05/17 04:30:07;;;;;;;7.87;6.67;;;;;;;;;;1747294;80;21754;-74
2022/05/17 04:32:38;;;;;;;10.30;6.40;;;27.10;99.90;;;;;;1755880;79;21557;-73
2022/05/17 04:35:09;;;;;;;8.30;6.40;;;;;;;;;;1773621;80;21217;-74
2022/05/17 04:37:40;;;;;;;8.18;6.12;;;;;;;;;;1752225;80;21152;-75
2022/05/17 04:40:11;;;;;;;10.25;6.92;;;;;;;;;;1744496;80;21259;-76
2022/05/17 04:42:43;;;;;;;9.33;6.78;;;;;;;;;;1734260;81;21208;-77
2022/05/17 04:45:14;;;;;;;9.73;6.80;;;;;;;;;;1724466;82;21823;-78
2022/05/17 04:47:45;;;;;;;12.07;7.70;;;;;;;;;;1742175;82;21289;-77
2022/05/17 04:50:17;;;;;;;10.68;7.15;;;;;;;;;;1768262;79;21183;-77
2022/05/17 04:52:48;;;;;;;8.55;6.95;;;;;;;;;;1817145;76;21200;-75
2022/05/17 04:55:22;;;;;;;10.32;7.28;;;;;;;;;;1782129;78;21645;-77
2022/05/17 04:57:53;;;;;;;9.15;6.37;;;;;;;;;;1789492;78;21121;-77
2022/05/17 05:00:25;;;;;;;8.98;6.90;;;;;;;;;;1827879;77;21109;-76
2022/05/17 05:02:56;;;;;;;8.93;7.05;;;;;;;;;;1762874;79;21179;-78
2022/05/17 05:05:29;;;;;;;7.78;6.28;;;;;;;;;;1774433;79;21642;-76
2022/05/17 05:07:59;;;;;;;7.87;6.60;;;;;;;;;;1793343;78;21171;-76
2022/05/17 05:10:31;;;;;;;9.33;6.67;;;;;;;;;;1782933;77;21153;-78
2022/05/17 05:13:02;;;;;;;8.13;6.78;;;;;;;;;;1818423;76;21176;-79
2022/05/17 05:15:35;;;;;;;7.60;6.72;;;;;;;;;;1827386;77;21089;-77
2022/05/17 05:18:06;;;;;;;9.83;6.80;;;;;;;;;;1792295;79;21265;-76
2022/05/17 05:20:43;;;;;;;12.63;7.35;;;;;;;;;;1787707;76;21316;-75
2022/05/17 05:23:11;;;;;;;7.95;6.37;;;;;;;;;;1790495;78;21127;-77
2022/05/17 05:25:42;;;;;;;12.70;6.58;;;;;;;;;;1791596;77;21257;-76
2022/05/17 05:28:16;;;;;;;7.75;6.95;;;;;;;;;;1808635;77;21207;-77
2022/05/17 05:30:48;;;;;;;6.60;5.50;;;;;;;;;;1824233;77;21182;-76
2022/05/17 05:33:19;;;;;;;8.23;6.03;;;;;;;;;;1841581;77;21172;-76
2022/05/17 05:35:49;;;;;;;9.95;6.15;;;;;;;;;;1835896;76;21257;-77
2022/05/17 05:38:20;;;;;;;11.35;6.40;;;;;;;;;;1788925;78;21231;-76
2022/05/17 05:40:51;;;;;;;8.53;6.47;;;;;;;;;;1802376;77;21241;-76
2022/05/17 05:43:22;;;;;;;8.48;6.75;;;;;;;;;;1759509;80;21268;-76
2022/05/17 05:45:52;;;;;;;9.88;6.45;;;;;;;;;;1790195;77;21289;-76
2022/05/17 05:48:23;;;;;;;7.80;5.90;;;;;;;;;;1785051;79;21705;-76
2022/05/17 05:50:54;;;;;;;9.18;6.40;;;;;;;;;;1786071;79;21125;-77
2022/05/17 05:53:25;;;;;;;8.65;6.45;;;;;;;;;;1780807;79;21186;-77
2022/05/17 05:56:01;;;;;;;11.68;6.40;;;;;;;;;;1799788;78;21272;-76
2022/05/17 05:58:27;;;;;;;11.10;6.58;;;;;;;;;;1787232;79;21173;-76
2022/05/17 06:00:58;;;;;;;8.58;6.05;;;;;;;;;;1784422;80;21176;-78
2022/05/17 06:03:28;;;;;;;9.28;6.30;;;;;;;;;;1793814;78;21184;-77
2022/05/17 06:05:59;;;;;;;9.95;6.12;;;;;;;;;;1798755;78;21107;-75
2022/05/17 06:08:30;;;;;;;8.78;6.15;;;;;;;;;;1800831;77;21203;-76
2022/05/17 06:11:01;;;;;;;8.60;6.97;;;;;;;;;;1796910;77;21164;-76
2022/05/17 06:13:34;;;;;;;9.10;6.42;;;;;;;;;;1787900;77;21227;-75
2022/05/17 06:16:08;;;;;;;7.75;5.92;;;;;;;;;;1792139;77;21200;-76
2022/05/17 06:18:40;;;;;;;8.35;6.08;;;;;;;;;;1790175;79;21147;-76
2022/05/17 06:21:11;;;;;;;7.97;6.75;;;;;;;;;;1800732;77;21105;-76
2022/05/17 06:23:46;;;;;;;7.03;5.58;;;28.10;99.90;;;;;;1805493;77;21183;-76
2022/05/17 06:26:17;;;;;;;8.18;6.53;;;;;;;;;;1769669;80;21245;-76
2022/05/17 06:28:50;;;;;;;7.40;5.97;;;;;;;;;;1740493;80;21638;-77
2022/05/17 06:31:21;;;;;;;8.03;6.08;;;;;;;;;;1753218;81;21132;-78
2022/05/17 06:33:52;;;;;;;10.43;6.12;;;;;;;;;;1745583;80;21260;-76
2022/05/17 06:36:29;;;;;;;7.80;6.25;;;;;;;;;;1765989;79;21187;-78
2022/05/17 06:39:02;;;;;;;7.05;6.22;;;;;;;;;;1775232;78;21264;-77
2022/05/17 06:41:33;;;;;;;9.13;6.37;;;;;;;;;;1769477;79;21220;-77
2022/05/17 06:44:06;;;;;;;9.33;6.08;;;;;;;;;;1745867;80;21607;-77
2022/05/17 06:46:37;;;;;;;8.78;5.60;;;;;;;;;;1746950;81;21227;-76
2022/05/17 06:49:09;;;;;;;7.00;6.00;;;;;;;;;;1745541;81;21262;-76
2022/05/17 06:51:41;;;;;;;8.50;6.45;;;;;;;;;;1734129;80;21187;-77
2022/05/17 06:54:12;;;;;;;8.50;6.20;;;;;;;;;;1766068;80;21764;-77
2022/05/17 06:56:44;;;;;;;7.92;6.20;;;;;;;;;;1752263;81;21310;-77
2022/05/17 06:59:15;;;;;;;8.18;6.33;;;;;;;;;;1752849;81;21198;-76
2022/05/17 07:01:49;;;;;;;6.55;5.85;;;;;;;;;;1749193;81;21197;-76
2022/05/17 07:04:19;;;;;;;7.65;6.20;;;;;;;;;;1761133;80;21329;-76
2022/05/17 07:06:52;;;;;;;8.25;6.03;;;;;;;;;;1763123;79;21167;-77
2022/05/17 07:09:24;;;;;;;6.95;5.75;;;;;;;;;;1746359;80;21160;-76
2022/05/17 07:14:29;;;;;;;7.75;5.92;;;;;;;;;;1725623;82;21277;-76
2022/05/17 07:17:01;;;;;;;12.00;6.37;;;;;;;;;;1723937;82;21211;-76
2022/05/17 07:19:33;;;;;;;9.48;6.90;;;;;;;;;;1731121;81;21250;-76
2022/05/17 07:22:05;;;;;;;7.33;6.25;;;;;;;;;;1756062;81;21165;-77
2022/05/17 07:24:37;;;;;;;7.97;5.90;;;;;;;;;;1751969;81;21229;-76
2022/05/17 07:27:09;;;;;;;7.15;6.08;;;;;;;;;;1746216;81;21288;-76
2022/05/17 07:29:42;;;;;;;8.23;5.47;;;;;;;;;;1744125;79;21132;-75
2022/05/17 07:32:13;;;;;;;8.60;5.62;;;;;;;;;;1746406;79;21219;-75
2022/05/17 07:34:47;;;;;;;7.03;6.17;;;;;;;;;;1755849;80;21254;-75
2022/05/17 07:40:13;;;;;;;7.65;6.30;;;;;;;;;;1834173;77;21723;-76
2022/05/17 07:42:44;;;;;;;9.20;6.05;;;;;;;;;;1769997;80;21190;-75
2022/05/17 07:45:16;;;;;;;7.67;6.25;;;;;;;;;;1757823;81;21261;-77
2022/05/17 07:47:50;;;;;;;8.55;6.28;;;;;;;;;;1775936;81;21089;-76
2022/05/17 07:50:22;;;;;;;7.33;6.28;;;;;;;;;;1777422;81;21179;-75
2022/05/17 07:52:53;;;;;;;7.42;6.12;;;;;;;;;;1829333;76;21154;-76
2022/05/17 07:55:25;;;;;;;7.92;5.95;;;;;;;;;;1793509;78;21237;-74
2022/05/17 07:57:56;;;;;;;8.50;6.72;;;;;;;;;;1766390;81;21168;-77
2022/05/17 08:00:27;;;;;;;7.10;5.67;;;;;;;;;;1765947;79;21521;-75
2022/05/17 08:03:00;;;;;;;9.40;5.78;;;;;;;;;;1832235;77;21206;-76
2022/05/17 08:05:32;;;;;;;8.78;6.05;;;;;;;;;;1831230;76;21189;-77
2022/05/17 08:08:04;;;;;;;7.08;6.33;;;;;;;;;;1839928;76;21271;-75
2022/05/17 08:10:36;;;;;;;14.10;12.43;;;;;;;;;;1843627;76;21137;-77
2022/05/17 08:13:08;;;;;;;7.50;6.75;;;;;;;;;;1843916;76;21189;-76
2022/05/17 08:15:40;;;;;;;8.60;6.55;;;;;;;;;;1845489;76;21153;-76
2022/05/17 08:18:12;;;;;;;9.00;6.22;;;;;;;;;;1803489;78;21183;-75
2022/05/17 08:20:44;;;;;;;7.30;5.75;;;;;;;;;;1803285;77;21283;-75
2022/05/17 08:23:15;;;;;;;7.50;6.05;;;;;;;;;;1812889;77;21645;-75
2022/05/17 08:28:19;;;;;;;8.20;5.87;;;;;;;;;;1828187;77;21243;-76
2022/05/17 08:30:51;;;;;;;8.50;5.35;;;;;;;;;;1831007;77;21196;-74
2022/05/17 08:33:26;;;;;;;8.53;5.95;;;;;;;;;;1837367;77;21256;-76
2022/05/17 08:36:00;;;;;;;7.72;5.92;;;;;;;;;;1813688;77;21189;-75
2022/05/17 08:38:33;;;;;;;8.68;6.28;;;;;;;;;;1810933;77;21151;-76
2022/05/17 08:41:06;;;;;;;9.38;6.42;;;;;;;;;;1830722;77;21169;-76
2022/05/17 08:43:39;;;;;;;7.00;5.62;;;;;;;;;;1822236;76;21165;-76
2022/05/17 08:46:12;;;;;;;7.45;5.95;;;;;;;;;;1836170;76;21158;-76
2022/05/17 08:48:44;;;;;;;7.95;6.67;;;;;;;;;;1832785;77;21178;-76
2022/05/17 08:51:20;;;;;;;8.25;5.62;;;;;;;;;;1830571;76;21169;-75
2022/05/17 08:53:53;;;;;;;6.83;5.92;;;;;;;;;;1849183;76;21629;-75
2022/05/17 08:56:26;;;;;;;8.50;6.30;;;;;;;;;;1837096;77;21197;-77
2022/05/17 08:58:57;;;;;;;7.35;5.95;;;;;;;;;;1799458;78;21144;-76
2022/05/17 09:01:29;;;;;;;9.53;6.00;;;;;;;;;;1843292;76;21653;-75
2022/05/17 09:04:03;;;;;;;8.00;6.37;;;;;;;;;;1824631;77;21230;-78
2022/05/17 09:06:36;;;;;;;8.90;6.37;;;;;;;;;;1840095;76;21169;-75
2022/05/17 09:09:13;;;;;;;9.67;6.27;;;;;;;;;;1829068;77;21638;-76
2022/05/17 09:11:51;;;;;;;7.92;5.78;;;;;;;;;;1837350;75;21157;-79
2022/05/17 09:14:30;;;;;;;7.65;5.30;;;;;;;;;;1808472;77;21655;-75
2022/05/17 09:17:07;;;;;;;7.42;5.80;;;;;;;;;;1825591;77;21194;-74
2022/05/17 09:19:39;;;;;;;8.90;6.78;;;;;;;;;;1829394;76;21206;-76
2022/05/17 09:22:10;;;;;;;9.00;6.15;;;;;;;;;;1829998;76;21158;-75
2022/05/17 09:24:45;;;;;;;7.45;6.20;;;;;;;;;;1826515;77;21163;-76
2022/05/17 09:27:25;;;;;;;8.10;6.67;;;;;;;;;;1825945;77;21660;-76
2022/05/17 09:32:56;;;;;;;9.55;6.60;;;;;;;;;;1804422;77;21108;-75
2022/05/17 09:35:30;;;;;;;7.40;5.83;;;;;;;;;;1819015;76;21144;-75
2022/05/17 09:38:05;;;;;;;8.43;5.83;;;;;;;;;;1808832;78;21190;-75
2022/05/17 09:40:41;;;;;;;6.92;5.67;;;;;;;;;;1808394;78;21816;-76
2022/05/17 09:43:17;;;;;;;7.37;5.42;;;;;;;;;;1789939;77;21219;-76
2022/05/17 09:45:58;;;;;;;10.15;6.17;;;;;;;;;;1793561;77;21185;-76
2022/05/17 09:52:31;;;;;;;6.35;5.58;;;;;;;;;;1807141;77;21100;-75
2022/05/17 09:53:49;;;;;;;6.35;5.53;;;;;;;;;;1777325;79;21568;-75
2022/05/17 09:56:24;;;;;;;;;;;;;;;;;;1781977;79;21285;-76
2022/05/17 09:58:58;;;;;;;10.18;6.58;;;;;;;;;;1788620;79;20192;-75
2022/05/17 10:01:31;;;;;;;9.90;5.97;;;;;;;;;;1807241;77;21635;-76
2022/05/17 10:04:05;;;;;;;7.85;5.92;;;;;;;;;;1782306;78;21135;-76
2022/05/17 10:06:39;;;;;;;7.97;6.12;;;;;;;;;;1780725;79;21737;-76
2022/05/17 10:09:12;;;;;;;7.60;5.75;;;;;;;;;;1781003;79;21597;-76
2022/05/17 10:11:51;;;;;;;8.13;5.08;;;;;;;;;;1800127;78;21105;-76
2022/05/17 10:14:23;;;;;;;9.43;6.30;;;;;;;;;;1800132;78;21168;-77
2022/05/17 10:16:56;;;;;;;6.90;5.53;;;;;;;;;;1803854;77;21187;-76
2022/05/17 10:19:31;;;;;;;9.60;6.10;;;;;;;;;;1798296;76;21611;-76
2022/05/17 10:22:04;;;;;;;8.18;6.95;;;;;;;;;;1806263;77;21199;-75
2022/05/17 10:24:36;;;;;;;9.48;7.00;;;;;;;;;;1808186;77;21148;-75
2022/05/17 10:27:09;;;;;;;8.43;5.62;;;;;;;;;;1801418;77;21646;-75
2022/05/17 10:29:45;;;;;;;9.43;6.03;;;;;;;;;;1806308;77;21160;-76
2022/05/17 10:32:19;;;;;;;8.38;5.40;;;;;;;;;;1798675;78;21434;-77
2022/05/17 10:34:53;;;;;;;7.55;5.72;;;;;;;;;;1803502;78;21081;-76
2022/05/17 10:37:27;;;;;;;9.20;6.00;;;;;;;;;;1792507;79;21127;-76
2022/05/17 10:39:59;;;;;;;9.10;5.78;;;;;;;;;;1807737;78;21242;-76
2022/05/17 10:42:33;;;;;;;9.18;5.72;;;;;;;;;;1802137;77;21132;-76
2022/05/17 10:45:05;;;;;;;10.00;5.87;;;;;;;;;;1796199;77;21235;-75
2022/05/17 10:47:39;;;;;;;8.90;6.33;;;;;;;;;;1807137;77;21148;-76
2022/05/17 10:50:13;;;;;;;6.72;6.03;;;;;;;;;;1798355;78;21261;-76
2022/05/17 10:52:47;;;;;;;9.75;5.60;;;;;;;;;;1809566;77;21120;-75
2022/05/17 10:55:20;;;;;;;7.37;6.03;;;;;;;;;;1797866;77;21152;-75
2022/05/17 10:57:55;;;;;;;8.58;6.05;;;;;;;;;;1806836;77;21607;-75
2022/05/17 11:00:29;;;;;;;11.57;6.53;;;;;;;;;;1807924;78;21087;-75
2022/05/17 11:03:02;;;;;;;9.75;5.90;;;;;;;;;;1782817;79;21199;-75
2022/05/17 11:05:35;;;;;;;7.97;5.62;;;;;;;;;;1799865;77;21237;-75
2022/05/17 11:08:09;;;;;;;9.43;6.33;;;;;;;;;;1816099;77;21295;-75
2022/05/17 11:10:41;;;;;;;6.95;5.80;;;;;;;;;;1794314;77;21163;-75
2022/05/17 11:13:16;;;;;;;12.70;8.58;;;;;;;;;;1809352;77;21290;-75
2022/05/17 11:15:51;;;;;;;13.13;7.62;;;;;;;;;;1810303;77;21140;-75
2022/05/17 11:18:26;;;;;;;11.43;8.78;;;;;;;;;;1795456;77;21182;-74
2022/05/17 11:21:01;;;;;;;11.12;8.03;;;;;;;;;;1805924;77;21261;-74
2022/05/17 11:23:36;;;;;;;9.13;6.85;;;;;;;;;;1809350;77;21101;-75
2022/05/17 11:26:08;;;;;;;7.95;6.30;;;;;;;;;;1797833;77;21646;-75
2022/05/17 11:28:44;;;;;;;9.28;6.20;;;;;;;;;;1788964;77;21152;-74
2022/05/17 11:34:15;;;;;;;8.65;5.42;;;;;;;;;;1819736;79;21738;-74
2022/05/17 11:36:49;;;;;;;6.80;5.60;;;;;;;;;;1805159;79;21181;-75
2022/05/17 11:39:23;;;;;;;9.33;5.75;;;;;;;;;;1803339;77;21258;-74
2022/05/17 11:41:58;;;;;;;8.00;6.25;;;;;;;;;;1823111;76;21193;-74
2022/05/17 11:44:32;;;;;;;8.98;6.60;;;;;;;;;;1809755;77;21162;-72
2022/05/17 11:47:07;;;;;;;7.95;6.20;;;;;;;;;;1799344;78;21094;-74
2022/05/17 11:49:45;;;;;;;11.53;6.45;;;;;;;;;;1803661;77;21161;-75
2022/05/17 11:52:16;;;;;;;8.05;6.22;;;;;;;;;;1764664;78;21254;-75
2022/05/17 11:54:51;;;;;;;8.85;7.03;;;;;;;;;;1778787;77;21328;-76
2022/05/17 11:57:24;;;;;;;9.15;6.60;;;;;;;;;;1765142;79;21184;-76
2022/05/17 11:59:56;;;;;;;8.93;6.97;;;;;;;;;;1780404;78;21161;-76
2022/05/17 12:02:29;;;;;;;7.42;6.08;;;;;;;;;;1771076;78;21146;-75
2022/05/17 12:05:00;;;;;;;10.72;7.53;;;;;;;;;;1816000;77;21084;-76
2022/05/17 12:07:32;;;;;;;9.70;7.33;;;;;;;;;;1785902;78;21259;-75
2022/05/17 12:10:06;;;;;;;13.70;8.78;;;;;;;;;;1789985;79;21642;-75
2022/05/17 12:12:42;;;;;;;11.73;7.85;;;;;;;;;;1779450;79;21712;-76
2022/05/17 12:15:16;;;;;;;10.80;7.78;;;;;;;;;;1827351;77;21216;-75
2022/05/17 12:17:48;;;;;;;9.85;7.62;;;;;;;;;;1839259;77;21175;-76
2022/05/17 12:20:21;;;;;;;11.00;7.92;;;;;;;;;;1839350;76;21250;-76
2022/05/17 12:22:54;;;;;;;12.00;8.25;;;;;;;;;;1809886;77;21177;-74
2022/05/17 12:25:26;;;;;;;12.37;9.25;;;;;;;;;;1841078;77;21100;-76
2022/05/17 12:27:58;;;;;;;10.90;9.05;;;;;;;;;;1810320;78;21106;-75
2022/05/17 12:33:06;;;;;;;12.45;9.38;;;;;;;;;;1825465;77;21659;-75
2022/05/17 12:35:38;;;;;;;13.83;9.48;;;;;;;;;;1825067;77;21070;-74
2022/05/17 12:43:17;;;;;;;17.77;10.95;;;;;;;;;;1812727;77;21240;-75
2022/05/17 12:45:49;;;;;;;14.60;11.00;;;;;;;;;;1841024;76;21173;-89
2022/05/17 12:48:23;;;;;;;15.63;11.55;;;;;;;;;;1816261;77;21225;-90
2022/05/17 12:50:55;;;;;;;19.30;12.47;;;;;;;;;;1805088;77;21127;-90
2022/05/17 12:53:30;;;;;;;18.87;13.20;;;;;;;;;;1809749;77;21155;-91
2022/05/17 12:56:05;;;;;;;18.65;13.58;;;;;;;;;;1834228;76;21102;-91
2022/05/17 12:58:48;;;;;;;17.42;13.53;;;;;;;;;;1853458;76;21109;-90
2022/05/17 13:01:20;;;;;;;17.85;13.55;;;;;;;;;;1824284;77;21110;-91
2022/05/17 13:03:58;;;;;;;16.23;12.98;;;;;;;;;;1822009;77;21156;-90
2022/05/17 13:06:30;;;;;;;18.37;13.30;;;;;;;;;;1820927;77;21363;-91
2022/05/17 13:09:03;;;;;;;16.45;12.63;;;;;;;;;;1823649;76;21216;-89
2022/05/17 13:11:39;;;;;;;18.15;12.23;;;;;;;;;;1835517;77;21119;-91
2022/05/17 13:14:13;;;;;;;16.45;12.30;;;;;;;;;;1844646;76;21183;-92
2022/05/17 13:16:58;;;;;;;16.75;12.20;;;;;;;;;;1832567;76;21242;-92
2022/05/17 13:19:34;;;;;;;14.95;11.63;;;;;;;;;;1823169;77;21096;-90
2022/05/17 13:22:18;;;;;;;13.85;10.85;;;;;;;;;;1833586;77;21179;-92
2022/05/17 13:24:56;;;;;;;14.55;10.03;;;;;;;;;;1848326;77;21175;-92
2022/05/17 13:27:29;;;;;;;14.18;11.35;;;;;;;;;;1809898;77;21076;-91
2022/05/17 13:30:02;;;;;;;14.20;11.43;;;;;;;;;;1809789;76;21148;-92
2022/05/17 13:32:38;;;;;;;14.83;11.40;;;;;;;;;;1836065;78;21157;-89
2022/05/17 13:35:27;;;;;;;14.28;10.10;;;;;;;;;;1815532;78;21160;-94
2022/05/17 13:38:19;;;;;;;15.45;11.10;;;;;;;;;;1734600;77;21161;-92
2022/05/17 13:44:17;;;;;;;15.10;11.25;;;;;;;;;;1883611;75;21163;-93
2022/05/17 13:47:10;;;;;;;17.32;12.13;;;;;;;;;;1866907;76;21140;-93
2022/05/17 13:50:01;;;;;;;19.62;11.97;;;;;;;;;;1814112;77;21270;-92
2022/05/17 13:52:54;;;;;;;15.30;11.93;;;;;;;;;;1778575;78;21068;-93
2022/05/17 13:55:44;;;;;;;14.55;11.30;;;;;;;;;;1836035;76;21180;-94
2022/05/17 13:58:37;;;;;;;18.00;11.78;;;;;;;;;;1833235;75;21159;-94
2022/05/17 14:04:20;;;;;;;15.03;11.08;;;;;;;;;;1859538;73;21129;-92
2022/05/17 14:16:01;;;;;;;21.87;13.98;;;;;;;;;;1841620;72;21180;-94
2022/05/17 14:21:24;;;;;;;18.02;12.80;;;;;;;;;;1801507;75;21118;-91
2022/05/17 14:24:02;;;;;;;19.90;13.50;;;;;;;;;;1783820;79;21088;-93
2022/05/17 14:27:04;;;;;;;21.87;13.20;;;;;;;;;;1782849;80;21166;-92
2022/05/17 14:29:37;;;;;;;17.20;12.78;;;;;;;;;;1773886;80;21158;-91
2022/05/17 14:32:09;;;;;;;17.52;12.37;;;27.80;99.90;;;;;;1773611;80;21167;-93
2022/05/17 14:34:51;;;;;;;20.32;12.45;;;;;;;;;;1777810;79;21155;-92
2022/05/17 14:37:24;;;;;;;19.40;13.38;;;;;;;;;;1782738;79;21205;-93
2022/05/17 14:40:14;;;;;;;18.98;12.78;;;;;;;;;;1768957;79;21225;-91
2022/05/17 14:42:53;;;;;;;18.70;12.25;;;;;;;;;;1770643;80;21123;-92
2022/05/17 14:45:25;;;;;;;18.15;13.08;;;;;;;;;;1784291;79;21131;-92
2022/05/17 14:48:22;;;;;;;15.70;12.47;;;;;;;;;;1768216;80;21178;-92
2022/05/17 14:51:22;;;;;;;17.55;12.93;;;;;;;;;;1746153;80;21174;-92
2022/05/17 14:54:15;;;;;;;17.62;12.58;;;;;;;;;;1653966;87;21184;-92
2022/05/17 14:56:50;;;;;;;16.75;11.85;;;;;;;;;;1634956;87;21357;-92
2022/05/17 14:59:23;;;;;;;18.92;11.93;;;;;;;;;;1642287;87;21704;-92
2022/05/17 15:02:09;;;;;;;17.00;12.20;;;;;;;;;;1642110;87;21157;-92
2022/05/17 15:04:41;;;;;;;19.65;12.58;;;;;;;;;;1641606;86;21137;-92
2022/05/17 15:07:13;;;;;;;14.95;11.65;;;;;;;;;;1637257;87;21267;-92
2022/05/17 15:10:17;;;;;;;17.02;11.57;;;;;;;;;;1641937;86;21267;-92
2022/05/17 15:12:53;;;;;;;16.82;11.38;;;;;;;;;;1634284;86;21267;-93
2022/05/17 15:15:28;;;;;;;14.78;10.90;;;;;;;;;;1642469;87;21303;-92
2022/05/17 15:18:07;;;;;;;17.27;11.85;;;;;;;;;;1642099;87;21275;-93
2022/05/17 15:20:41;;;;;;;16.70;11.63;;;;;;;;;;1641938;86;21216;-93
2022/05/17 15:23:15;;;;;;;19.23;12.93;;;;;;;;;;1632597;87;21200;-92
2022/05/17 15:25:46;;;;;;;17.12;11.65;;;;;;;;;;1690985;83;21203;-92
2022/05/17 15:28:18;;;;;;;16.30;12.25;;;;;;;;;;1716717;83;21149;-91
2022/05/17 15:30:50;;;;;;;18.62;12.70;;;;;;;;;;1758832;81;21148;-90